sensor_id;sensor_type;location;lat;lon;timestamp;P1;durP1;ratioP1;P2;durP2;ratioP2
48847;SDS011;36611;51.638;5.784;2023-02-04T00:04:44;15.38;;;4.60;;
48847;SDS011;36611;51.638;5.784;2023-02-04T00:07:13;23.27;;;5.05;;
48847;SDS011;36611;51.638;5.784;2023-02-04T00:09:41;22.08;;;4.75;;
48847;SDS011;36611;51.638;5.784;2023-02-04T00:12:08;16.65;;;4.13;;
48847;SDS011;36611;51.638;5.784;2023-02-04T00:14:35;14.73;;;4.68;;
48847;SDS011;36611;51.638;5.784;2023-02-04T00:17:05;19.10;;;5.43;;
48847;SDS011;36611;51.638;5.784;2023-02-04T00:19:36;20.30;;;4.57;;
48847;SDS011;36611;51.638;5.784;2023-02-04T00:22:03;19.88;;;4.82;;
48847;SDS011;36611;51.638;5.784;2023-02-04T00:24:30;18.50;;;4.18;;
48847;SDS011;36611;51.638;5.784;2023-02-04T00:27:01;17.25;;;4.47;;
48847;SDS011;36611;51.638;5.784;2023-02-04T00:29:28;25.63;;;6.18;;
48847;SDS011;36611;51.638;5.784;2023-02-04T00:31:55;21.48;;;4.90;;
48847;SDS011;36611;51.638;5.784;2023-02-04T00:34:22;22.08;;;4.97;;
48847;SDS011;36611;51.638;5.784;2023-02-04T00:36:53;20.50;;;4.65;;
48847;SDS011;36611;51.638;5.784;2023-02-04T00:39:19;17.52;;;5.05;;
48847;SDS011;36611;51.638;5.784;2023-02-04T00:41:46;15.73;;;4.32;;
48847;SDS011;36611;51.638;5.784;2023-02-04T00:44:12;20.33;;;4.03;;
48847;SDS011;36611;51.638;5.784;2023-02-04T00:46:42;17.25;;;4.53;;
48847;SDS011;36611;51.638;5.784;2023-02-04T00:49:09;15.90;;;4.43;;
48847;SDS011;36611;51.638;5.784;2023-02-04T00:51:37;21.23;;;4.88;;
48847;SDS011;36611;51.638;5.784;2023-02-04T00:54:05;17.85;;;5.15;;
48847;SDS011;36611;51.638;5.784;2023-02-04T00:56:35;15.57;;;5.03;;
48847;SDS011;36611;51.638;5.784;2023-02-04T00:59:02;19.67;;;5.03;;
48847;SDS011;36611;51.638;5.784;2023-02-04T01:01:28;17.30;;;4.57;;
48847;SDS011;36611;51.638;5.784;2023-02-04T01:03:56;18.80;;;5.40;;
48847;SDS011;36611;51.638;5.784;2023-02-04T01:06:24;20.17;;;5.32;;
48847;SDS011;36611;51.638;5.784;2023-02-04T01:08:50;17.13;;;4.35;;
48847;SDS011;36611;51.638;5.784;2023-02-04T01:11:17;26.27;;;5.10;;
48847;SDS011;36611;51.638;5.784;2023-02-04T01:13:44;18.38;;;4.47;;
48847;SDS011;36611;51.638;5.784;2023-02-04T01:16:15;18.70;;;4.63;;
48847;SDS011;36611;51.638;5.784;2023-02-04T01:18:42;18.00;;;4.22;;
48847;SDS011;36611;51.638;5.784;2023-02-04T01:21:10;19.80;;;4.60;;
48847;SDS011;36611;51.638;5.784;2023-02-04T01:23:37;15.45;;;4.10;;
48847;SDS011;36611;51.638;5.784;2023-02-04T01:26:07;16.13;;;4.18;;
48847;SDS011;36611;51.638;5.784;2023-02-04T01:28:34;17.35;;;4.35;;
48847;SDS011;36611;51.638;5.784;2023-02-04T01:31:01;15.93;;;4.45;;
48847;SDS011;36611;51.638;5.784;2023-02-04T01:33:27;14.90;;;4.90;;
48847;SDS011;36611;51.638;5.784;2023-02-04T01:35:58;16.73;;;4.03;;
48847;SDS011;36611;51.638;5.784;2023-02-04T01:38:25;18.38;;;4.80;;
48847;SDS011;36611;51.638;5.784;2023-02-04T01:40:51;17.20;;;4.35;;
48847;SDS011;36611;51.638;5.784;2023-02-04T01:43:20;20.00;;;4.97;;
48847;SDS011;36611;51.638;5.784;2023-02-04T01:45:50;21.83;;;4.68;;
48847;SDS011;36611;51.638;5.784;2023-02-04T01:48:18;17.63;;;4.05;;
48847;SDS011;36611;51.638;5.784;2023-02-04T01:50:47;24.73;;;4.40;;
48847;SDS011;36611;51.638;5.784;2023-02-04T01:53:15;16.15;;;4.68;;
48847;SDS011;36611;51.638;5.784;2023-02-04T01:55:48;19.65;;;4.78;;
48847;SDS011;36611;51.638;5.784;2023-02-04T01:58:15;18.25;;;4.75;;
48847;SDS011;36611;51.638;5.784;2023-02-04T02:00:43;18.23;;;4.38;;
48847;SDS011;36611;51.638;5.784;2023-02-04T02:03:10;16.38;;;4.60;;
48847;SDS011;36611;51.638;5.784;2023-02-04T02:05:43;21.00;;;4.93;;
48847;SDS011;36611;51.638;5.784;2023-02-04T02:08:11;18.75;;;4.70;;
48847;SDS011;36611;51.638;5.784;2023-02-04T02:10:40;20.92;;;4.88;;
48847;SDS011;36611;51.638;5.784;2023-02-04T02:13:09;19.35;;;4.53;;
48847;SDS011;36611;51.638;5.784;2023-02-04T02:15:40;20.02;;;5.28;;
48847;SDS011;36611;51.638;5.784;2023-02-04T02:18:07;15.18;;;4.10;;
48847;SDS011;36611;51.638;5.784;2023-02-04T02:20:34;16.33;;;4.88;;
48847;SDS011;36611;51.638;5.784;2023-02-04T02:25:40;18.13;;;5.22;;
48847;SDS011;36611;51.638;5.784;2023-02-04T02:28:10;27.50;;;5.82;;
48847;SDS011;36611;51.638;5.784;2023-02-04T02:30:40;22.25;;;5.32;;
48847;SDS011;36611;51.638;5.784;2023-02-04T02:33:14;18.85;;;5.85;;
48847;SDS011;36611;51.638;5.784;2023-02-04T02:35:47;22.40;;;5.47;;
48847;SDS011;36611;51.638;5.784;2023-02-04T02:38:14;18.05;;;5.75;;
48847;SDS011;36611;51.638;5.784;2023-02-04T02:40:42;20.10;;;4.82;;
48847;SDS011;36611;51.638;5.784;2023-02-04T02:43:13;17.98;;;4.90;;
48847;SDS011;36611;51.638;5.784;2023-02-04T02:45:46;25.55;;;6.75;;
48847;SDS011;36611;51.638;5.784;2023-02-04T02:48:13;22.30;;;5.45;;
48847;SDS011;36611;51.638;5.784;2023-02-04T02:50:40;19.15;;;5.22;;
48847;SDS011;36611;51.638;5.784;2023-02-04T02:53:11;26.63;;;5.53;;
48847;SDS011;36611;51.638;5.784;2023-02-04T02:55:45;24.30;;;5.68;;
48847;SDS011;36611;51.638;5.784;2023-02-04T02:58:27;22.98;;;6.43;;
48847;SDS011;36611;51.638;5.784;2023-02-04T03:00:58;25.40;;;5.60;;
48847;SDS011;36611;51.638;5.784;2023-02-04T03:03:29;25.88;;;6.15;;
48847;SDS011;36611;51.638;5.784;2023-02-04T03:06:10;27.73;;;6.20;;
48847;SDS011;36611;51.638;5.784;2023-02-04T03:08:42;29.23;;;6.50;;
48847;SDS011;36611;51.638;5.784;2023-02-04T03:11:10;24.30;;;6.97;;
48847;SDS011;36611;51.638;5.784;2023-02-04T03:13:37;29.42;;;6.25;;
48847;SDS011;36611;51.638;5.784;2023-02-04T03:16:05;25.15;;;6.43;;
48847;SDS011;36611;51.638;5.784;2023-02-04T03:18:33;22.13;;;6.18;;
48847;SDS011;36611;51.638;5.784;2023-02-04T03:21:01;25.70;;;5.90;;
48847;SDS011;36611;51.638;5.784;2023-02-04T03:23:30;23.95;;;6.28;;
48847;SDS011;36611;51.638;5.784;2023-02-04T03:26:00;30.95;;;6.45;;
48847;SDS011;36611;51.638;5.784;2023-02-04T03:28:27;24.50;;;6.28;;
48847;SDS011;36611;51.638;5.784;2023-02-04T03:30:53;24.55;;;6.18;;
48847;SDS011;36611;51.638;5.784;2023-02-04T03:33:25;27.73;;;6.13;;
48847;SDS011;36611;51.638;5.784;2023-02-04T03:35:59;20.33;;;6.75;;
48847;SDS011;36611;51.638;5.784;2023-02-04T03:38:26;24.40;;;5.85;;
48847;SDS011;36611;51.638;5.784;2023-02-04T03:40:53;22.58;;;5.88;;
48847;SDS011;36611;51.638;5.784;2023-02-04T03:43:19;22.58;;;6.20;;
48847;SDS011;36611;51.638;5.784;2023-02-04T03:45:51;22.95;;;6.63;;
48847;SDS011;36611;51.638;5.784;2023-02-04T03:48:17;25.30;;;6.22;;
48847;SDS011;36611;51.638;5.784;2023-02-04T03:50:44;22.48;;;6.10;;
48847;SDS011;36611;51.638;5.784;2023-02-04T03:53:12;23.02;;;6.63;;
48847;SDS011;36611;51.638;5.784;2023-02-04T03:55:40;19.35;;;6.38;;
48847;SDS011;36611;51.638;5.784;2023-02-04T03:58:06;24.75;;;6.50;;
48847;SDS011;36611;51.638;5.784;2023-02-04T04:00:33;22.08;;;5.90;;
48847;SDS011;36611;51.638;5.784;2023-02-04T04:02:59;24.27;;;6.15;;
48847;SDS011;36611;51.638;5.784;2023-02-04T04:07:56;26.73;;;6.80;;
48847;SDS011;36611;51.638;5.784;2023-02-04T04:10:25;24.35;;;6.78;;
48847;SDS011;36611;51.638;5.784;2023-02-04T04:12:51;22.08;;;7.18;;
48847;SDS011;36611;51.638;5.784;2023-02-04T04:15:18;24.40;;;6.03;;
48847;SDS011;36611;51.638;5.784;2023-02-04T04:17:48;24.15;;;7.05;;
48847;SDS011;36611;51.638;5.784;2023-02-04T04:20:15;27.20;;;8.00;;
48847;SDS011;36611;51.638;5.784;2023-02-04T04:22:41;16.33;;;6.60;;
48847;SDS011;36611;51.638;5.784;2023-02-04T04:25:08;22.40;;;6.18;;
48847;SDS011;36611;51.638;5.784;2023-02-04T04:27:37;23.02;;;6.03;;
48847;SDS011;36611;51.638;5.784;2023-02-04T04:30:04;25.42;;;6.57;;
48847;SDS011;36611;51.638;5.784;2023-02-04T04:32:31;21.05;;;6.25;;
48847;SDS011;36611;51.638;5.784;2023-02-04T04:34:57;19.83;;;5.88;;
48847;SDS011;36611;51.638;5.784;2023-02-04T04:37:28;15.07;;;6.28;;
48847;SDS011;36611;51.638;5.784;2023-02-04T04:39:55;24.40;;;6.55;;
48847;SDS011;36611;51.638;5.784;2023-02-04T04:42:21;23.30;;;7.20;;
48847;SDS011;36611;51.638;5.784;2023-02-04T04:44:48;22.35;;;6.88;;
48847;SDS011;36611;51.638;5.784;2023-02-04T04:47:18;22.38;;;7.22;;
48847;SDS011;36611;51.638;5.784;2023-02-04T04:49:44;30.42;;;7.70;;
48847;SDS011;36611;51.638;5.784;2023-02-04T04:52:11;22.25;;;6.88;;
48847;SDS011;36611;51.638;5.784;2023-02-04T04:54:37;21.55;;;7.60;;
48847;SDS011;36611;51.638;5.784;2023-02-04T04:57:08;26.63;;;7.18;;
48847;SDS011;36611;51.638;5.784;2023-02-04T04:59:35;24.80;;;7.63;;
48847;SDS011;36611;51.638;5.784;2023-02-04T05:02:01;19.65;;;7.18;;
48847;SDS011;36611;51.638;5.784;2023-02-04T05:04:28;18.58;;;6.75;;
48847;SDS011;36611;51.638;5.784;2023-02-04T05:06:59;23.00;;;7.22;;
48847;SDS011;36611;51.638;5.784;2023-02-04T05:09:26;25.95;;;7.68;;
48847;SDS011;36611;51.638;5.784;2023-02-04T05:11:52;21.92;;;7.15;;
48847;SDS011;36611;51.638;5.784;2023-02-04T05:14:19;20.70;;;7.53;;
48847;SDS011;36611;51.638;5.784;2023-02-04T05:16:47;30.33;;;9.02;;
48847;SDS011;36611;51.638;5.784;2023-02-04T05:19:13;20.30;;;7.38;;
48847;SDS011;36611;51.638;5.784;2023-02-04T05:21:40;21.27;;;6.47;;
48847;SDS011;36611;51.638;5.784;2023-02-04T05:24:06;19.92;;;6.45;;
48847;SDS011;36611;51.638;5.784;2023-02-04T05:26:35;24.27;;;7.47;;
48847;SDS011;36611;51.638;5.784;2023-02-04T05:29:01;21.98;;;6.78;;
48847;SDS011;36611;51.638;5.784;2023-02-04T05:31:28;22.17;;;7.30;;
48847;SDS011;36611;51.638;5.784;2023-02-04T05:33:55;21.73;;;7.75;;
48847;SDS011;36611;51.638;5.784;2023-02-04T05:36:25;28.45;;;7.68;;
48847;SDS011;36611;51.638;5.784;2023-02-04T05:38:51;24.67;;;7.88;;
48847;SDS011;36611;51.638;5.784;2023-02-04T05:41:18;20.90;;;7.07;;
48847;SDS011;36611;51.638;5.784;2023-02-04T05:43:44;21.00;;;7.53;;
48847;SDS011;36611;51.638;5.784;2023-02-04T05:46:13;25.23;;;8.70;;
48847;SDS011;36611;51.638;5.784;2023-02-04T05:48:39;27.85;;;7.53;;
48847;SDS011;36611;51.638;5.784;2023-02-04T05:51:06;31.20;;;8.23;;
48847;SDS011;36611;51.638;5.784;2023-02-04T05:53:32;15.93;;;7.05;;
48847;SDS011;36611;51.638;5.784;2023-02-04T05:56:02;21.88;;;7.25;;
48847;SDS011;36611;51.638;5.784;2023-02-04T05:58:28;22.88;;;7.30;;
48847;SDS011;36611;51.638;5.784;2023-02-04T06:00:59;28.13;;;7.68;;
48847;SDS011;36611;51.638;5.784;2023-02-04T06:03:27;25.30;;;6.55;;
48847;SDS011;36611;51.638;5.784;2023-02-04T06:05:56;19.95;;;6.50;;
48847;SDS011;36611;51.638;5.784;2023-02-04T06:08:22;21.77;;;5.97;;
48847;SDS011;36611;51.638;5.784;2023-02-04T06:10:49;17.60;;;6.18;;
48847;SDS011;36611;51.638;5.784;2023-02-04T06:13:16;19.80;;;7.05;;
48847;SDS011;36611;51.638;5.784;2023-02-04T06:15:44;22.00;;;6.90;;
48847;SDS011;36611;51.638;5.784;2023-02-04T06:18:10;23.02;;;6.95;;
48847;SDS011;36611;51.638;5.784;2023-02-04T06:20:37;20.08;;;6.63;;
48847;SDS011;36611;51.638;5.784;2023-02-04T06:23:04;22.05;;;6.70;;
48847;SDS011;36611;51.638;5.784;2023-02-04T06:25:32;28.63;;;6.93;;
48847;SDS011;36611;51.638;5.784;2023-02-04T06:27:58;19.77;;;7.68;;
48847;SDS011;36611;51.638;5.784;2023-02-04T06:30:25;21.77;;;6.80;;
48847;SDS011;36611;51.638;5.784;2023-02-04T06:32:52;23.42;;;6.63;;
48847;SDS011;36611;51.638;5.784;2023-02-04T06:35:18;22.05;;;7.22;;
48847;SDS011;36611;51.638;5.784;2023-02-04T06:37:47;21.88;;;6.68;;
48847;SDS011;36611;51.638;5.784;2023-02-04T06:40:14;20.77;;;5.80;;
48847;SDS011;36611;51.638;5.784;2023-02-04T06:42:40;21.50;;;6.30;;
48847;SDS011;36611;51.638;5.784;2023-02-04T06:45:07;23.40;;;6.97;;
48847;SDS011;36611;51.638;5.784;2023-02-04T06:47:36;24.45;;;8.30;;
48847;SDS011;36611;51.638;5.784;2023-02-04T06:50:02;34.63;;;9.63;;
48847;SDS011;36611;51.638;5.784;2023-02-04T06:52:29;27.48;;;9.18;;
48847;SDS011;36611;51.638;5.784;2023-02-04T06:54:56;36.88;;;11.52;;
48847;SDS011;36611;51.638;5.784;2023-02-04T06:57:24;53.10;;;12.85;;
48847;SDS011;36611;51.638;5.784;2023-02-04T06:59:50;50.40;;;13.55;;
48847;SDS011;36611;51.638;5.784;2023-02-04T07:02:17;49.58;;;13.40;;
48847;SDS011;36611;51.638;5.784;2023-02-04T07:04:43;40.35;;;12.35;;
48847;SDS011;36611;51.638;5.784;2023-02-04T07:07:17;55.72;;;15.13;;
48847;SDS011;36611;51.638;5.784;2023-02-04T07:09:43;57.58;;;14.75;;
48847;SDS011;36611;51.638;5.784;2023-02-04T07:12:10;55.25;;;14.38;;
48847;SDS011;36611;51.638;5.784;2023-02-04T07:14:36;54.30;;;16.33;;
48847;SDS011;36611;51.638;5.784;2023-02-04T07:17:06;48.20;;;15.43;;
48847;SDS011;36611;51.638;5.784;2023-02-04T07:19:32;48.60;;;14.90;;
48847;SDS011;36611;51.638;5.784;2023-02-04T07:22:01;54.00;;;15.38;;
48847;SDS011;36611;51.638;5.784;2023-02-04T07:24:28;55.15;;;15.68;;
48847;SDS011;36611;51.638;5.784;2023-02-04T07:26:57;52.55;;;15.73;;
48847;SDS011;36611;51.638;5.784;2023-02-04T07:29:27;55.80;;;16.77;;
48847;SDS011;36611;51.638;5.784;2023-02-04T07:31:54;51.70;;;15.88;;
48847;SDS011;36611;51.638;5.784;2023-02-04T07:34:20;59.38;;;17.65;;
48847;SDS011;36611;51.638;5.784;2023-02-04T07:36:49;48.08;;;15.68;;
48847;SDS011;36611;51.638;5.784;2023-02-04T07:39:15;45.70;;;15.43;;
48847;SDS011;36611;51.638;5.784;2023-02-04T07:41:42;48.88;;;17.17;;
48847;SDS011;36611;51.638;5.784;2023-02-04T07:44:11;45.15;;;14.57;;
48847;SDS011;36611;51.638;5.784;2023-02-04T07:46:41;55.38;;;17.02;;
48847;SDS011;36611;51.638;5.784;2023-02-04T07:49:08;47.40;;;15.82;;
48847;SDS011;36611;51.638;5.784;2023-02-04T07:51:34;45.80;;;15.60;;
48847;SDS011;36611;51.638;5.784;2023-02-04T07:54:01;39.03;;;15.15;;
48847;SDS011;36611;51.638;5.784;2023-02-04T07:56:29;55.42;;;16.55;;
48847;SDS011;36611;51.638;5.784;2023-02-04T07:58:56;48.38;;;15.73;;
48847;SDS011;36611;51.638;5.784;2023-02-04T08:01:23;44.50;;;15.93;;
48847;SDS011;36611;51.638;5.784;2023-02-04T08:03:49;39.55;;;15.70;;
48847;SDS011;36611;51.638;5.784;2023-02-04T08:06:17;41.00;;;15.73;;
48847;SDS011;36611;51.638;5.784;2023-02-04T08:08:44;44.28;;;16.15;;
48847;SDS011;36611;51.638;5.784;2023-02-04T08:11:11;49.03;;;16.83;;
48847;SDS011;36611;51.638;5.784;2023-02-04T08:13:37;38.25;;;15.02;;
48847;SDS011;36611;51.638;5.784;2023-02-04T08:16:07;45.72;;;16.95;;
48847;SDS011;36611;51.638;5.784;2023-02-04T08:18:36;41.53;;;15.18;;
48847;SDS011;36611;51.638;5.784;2023-02-04T08:21:03;40.50;;;15.98;;
48847;SDS011;36611;51.638;5.784;2023-02-04T08:23:31;47.25;;;17.55;;
48847;SDS011;36611;51.638;5.784;2023-02-04T08:26:03;41.67;;;16.13;;
48847;SDS011;36611;51.638;5.784;2023-02-04T08:28:31;40.97;;;16.20;;
48847;SDS011;36611;51.638;5.784;2023-02-04T08:30:58;42.90;;;16.25;;
48847;SDS011;36611;51.638;5.784;2023-02-04T08:33:25;43.55;;;17.33;;
48847;SDS011;36611;51.638;5.784;2023-02-04T08:35:54;34.25;;;15.57;;
48847;SDS011;36611;51.638;5.784;2023-02-04T08:38:21;44.65;;;17.58;;
48847;SDS011;36611;51.638;5.784;2023-02-04T08:40:48;44.90;;;17.00;;
48847;SDS011;36611;51.638;5.784;2023-02-04T08:43:15;34.45;;;15.63;;
48847;SDS011;36611;51.638;5.784;2023-02-04T08:45:46;39.55;;;16.45;;
48847;SDS011;36611;51.638;5.784;2023-02-04T08:48:12;38.45;;;16.27;;
48847;SDS011;36611;51.638;5.784;2023-02-04T08:50:40;30.73;;;15.20;;
48847;SDS011;36611;51.638;5.784;2023-02-04T08:53:07;35.67;;;16.77;;
48847;SDS011;36611;51.638;5.784;2023-02-04T08:55:40;35.67;;;16.50;;
48847;SDS011;36611;51.638;5.784;2023-02-04T08:58:07;30.15;;;14.70;;
48847;SDS011;36611;51.638;5.784;2023-02-04T09:00:33;36.72;;;15.70;;
48847;SDS011;36611;51.638;5.784;2023-02-04T09:03:01;31.40;;;14.05;;
48847;SDS011;36611;51.638;5.784;2023-02-04T09:08:19;34.03;;;15.38;;
48847;SDS011;36611;51.638;5.784;2023-02-04T09:10:46;31.83;;;14.20;;
48847;SDS011;36611;51.638;5.784;2023-02-04T09:13:12;32.97;;;15.15;;
48847;SDS011;36611;51.638;5.784;2023-02-04T09:15:43;32.58;;;15.02;;
48847;SDS011;36611;51.638;5.784;2023-02-04T09:18:10;40.83;;;15.93;;
48847;SDS011;36611;51.638;5.784;2023-02-04T09:20:42;39.45;;;14.20;;
48847;SDS011;36611;51.638;5.784;2023-02-04T09:23:09;35.55;;;14.70;;
48847;SDS011;36611;51.638;5.784;2023-02-04T09:25:39;34.40;;;14.75;;
48847;SDS011;36611;51.638;5.784;2023-02-04T09:28:07;37.05;;;14.60;;
48847;SDS011;36611;51.638;5.784;2023-02-04T09:30:38;36.15;;;14.70;;
48847;SDS011;36611;51.638;5.784;2023-02-04T09:33:06;35.10;;;15.27;;
48847;SDS011;36611;51.638;5.784;2023-02-04T09:38:26;39.05;;;15.55;;
48847;SDS011;36611;51.638;5.784;2023-02-04T09:40:55;28.40;;;14.00;;
48847;SDS011;36611;51.638;5.784;2023-02-04T09:43:26;38.22;;;15.02;;
48847;SDS011;36611;51.638;5.784;2023-02-04T09:45:57;32.88;;;13.13;;
48847;SDS011;36611;51.638;5.784;2023-02-04T09:48:24;32.65;;;12.43;;
48847;SDS011;36611;51.638;5.784;2023-02-04T09:50:52;32.20;;;13.45;;
48847;SDS011;36611;51.638;5.784;2023-02-04T09:53:32;23.70;;;12.90;;
48847;SDS011;36611;51.638;5.784;2023-02-04T09:56:04;34.05;;;13.60;;
48847;SDS011;36611;51.638;5.784;2023-02-04T09:58:32;29.15;;;12.15;;
48847;SDS011;36611;51.638;5.784;2023-02-04T10:01:05;27.70;;;12.43;;
48847;SDS011;36611;51.638;5.784;2023-02-04T10:03:43;27.13;;;11.40;;
48847;SDS011;36611;51.638;5.784;2023-02-04T10:06:19;26.27;;;12.48;;
48847;SDS011;36611;51.638;5.784;2023-02-04T10:08:52;25.70;;;11.23;;
48847;SDS011;36611;51.638;5.784;2023-02-04T10:11:20;26.25;;;11.27;;
48847;SDS011;36611;51.638;5.784;2023-02-04T10:13:49;33.92;;;12.43;;
48847;SDS011;36611;51.638;5.784;2023-02-04T10:16:27;26.98;;;11.43;;
48847;SDS011;36611;51.638;5.784;2023-02-04T10:21:26;30.33;;;10.80;;
48847;SDS011;36611;51.638;5.784;2023-02-04T10:23:55;26.67;;;10.40;;
48847;SDS011;36611;51.638;5.784;2023-02-04T10:26:31;27.05;;;10.75;;
48847;SDS011;36611;51.638;5.784;2023-02-04T10:29:04;32.47;;;11.40;;
48847;SDS011;36611;51.638;5.784;2023-02-04T10:31:39;26.52;;;11.85;;
48847;SDS011;36611;51.638;5.784;2023-02-04T10:36:49;32.55;;;9.88;;
48847;SDS011;36611;51.638;5.784;2023-02-04T10:39:19;27.30;;;9.68;;
48847;SDS011;36611;51.638;5.784;2023-02-04T10:41:51;26.27;;;10.95;;
48847;SDS011;36611;51.638;5.784;2023-02-04T10:44:44;33.10;;;10.98;;
48847;SDS011;36611;51.638;5.784;2023-02-04T10:47:16;26.38;;;8.15;;
48847;SDS011;36611;51.638;5.784;2023-02-04T10:50:01;27.27;;;9.07;;
48847;SDS011;36611;51.638;5.784;2023-02-04T10:52:36;29.27;;;8.93;;
48847;SDS011;36611;51.638;5.784;2023-02-04T10:55:07;28.63;;;9.10;;
48847;SDS011;36611;51.638;5.784;2023-02-04T10:57:43;33.50;;;10.40;;
48847;SDS011;36611;51.638;5.784;2023-02-04T11:00:17;29.33;;;10.13;;
48847;SDS011;36611;51.638;5.784;2023-02-04T11:03:08;24.88;;;9.88;;
48847;SDS011;36611;51.638;5.784;2023-02-04T11:08:35;26.80;;;9.75;;
48847;SDS011;36611;51.638;5.784;2023-02-04T11:11:07;31.05;;;10.68;;
48847;SDS011;36611;51.638;5.784;2023-02-04T11:18:52;24.17;;;8.85;;
48847;SDS011;36611;51.638;5.784;2023-02-04T11:21:26;25.77;;;10.82;;
48847;SDS011;36611;51.638;5.784;2023-02-04T12:58:43;27.90;;;8.60;;
48847;SDS011;36611;51.638;5.784;2023-02-04T13:01:10;22.33;;;7.88;;
48847;SDS011;36611;51.638;5.784;2023-02-04T13:03:37;25.45;;;7.28;;
48847;SDS011;36611;51.638;5.784;2023-02-04T13:06:06;22.15;;;7.57;;
48847;SDS011;36611;51.638;5.784;2023-02-04T13:08:33;27.17;;;7.88;;
48847;SDS011;36611;51.638;5.784;2023-02-04T13:11:00;21.48;;;7.70;;
48847;SDS011;36611;51.638;5.784;2023-02-04T13:13:27;20.50;;;7.47;;
48847;SDS011;36611;51.638;5.784;2023-02-04T13:15:58;24.13;;;8.50;;
48847;SDS011;36611;51.638;5.784;2023-02-04T13:18:24;26.67;;;7.82;;
48847;SDS011;36611;51.638;5.784;2023-02-04T13:20:51;19.90;;;8.25;;
48847;SDS011;36611;51.638;5.784;2023-02-04T13:23:18;25.00;;;7.47;;
48847;SDS011;36611;51.638;5.784;2023-02-04T13:25:48;27.80;;;9.00;;
48847;SDS011;36611;51.638;5.784;2023-02-04T13:28:15;23.58;;;7.05;;
48847;SDS011;36611;51.638;5.784;2023-02-04T13:30:42;24.00;;;8.70;;
48847;SDS011;36611;51.638;5.784;2023-02-04T13:33:09;28.30;;;7.63;;
48847;SDS011;36611;51.638;5.784;2023-02-04T13:35:39;20.02;;;7.05;;
48847;SDS011;36611;51.638;5.784;2023-02-04T13:38:06;19.80;;;6.65;;
48847;SDS011;36611;51.638;5.784;2023-02-04T13:40:33;23.20;;;7.43;;
48847;SDS011;36611;51.638;5.784;2023-02-04T13:43:00;24.67;;;7.28;;
48847;SDS011;36611;51.638;5.784;2023-02-04T13:45:28;18.95;;;6.32;;
48847;SDS011;36611;51.638;5.784;2023-02-04T13:47:56;23.75;;;7.28;;
48847;SDS011;36611;51.638;5.784;2023-02-04T13:50:22;24.63;;;7.45;;
48847;SDS011;36611;51.638;5.784;2023-02-04T13:52:49;25.02;;;7.82;;
48847;SDS011;36611;51.638;5.784;2023-02-04T13:55:16;22.63;;;7.25;;
48847;SDS011;36611;51.638;5.784;2023-02-04T13:57:44;23.67;;;7.38;;
48847;SDS011;36611;51.638;5.784;2023-02-04T14:00:12;23.15;;;7.43;;
48847;SDS011;36611;51.638;5.784;2023-02-04T14:02:42;15.85;;;6.47;;
48847;SDS011;36611;51.638;5.784;2023-02-04T14:05:09;18.88;;;6.35;;
48847;SDS011;36611;51.638;5.784;2023-02-04T14:07:38;27.95;;;7.60;;
48847;SDS011;36611;51.638;5.784;2023-02-04T14:10:05;20.15;;;6.25;;
48847;SDS011;36611;51.638;5.784;2023-02-04T14:12:33;23.05;;;6.70;;
48847;SDS011;36611;51.638;5.784;2023-02-04T14:14:59;24.20;;;6.30;;
48847;SDS011;36611;51.638;5.784;2023-02-04T14:17:31;22.95;;;6.30;;
48847;SDS011;36611;51.638;5.784;2023-02-04T14:19:57;21.00;;;7.30;;
48847;SDS011;36611;51.638;5.784;2023-02-04T14:22:24;22.42;;;6.30;;
48847;SDS011;36611;51.638;5.784;2023-02-04T14:24:51;20.17;;;6.38;;
48847;SDS011;36611;51.638;5.784;2023-02-04T14:27:21;21.70;;;5.90;;
48847;SDS011;36611;51.638;5.784;2023-02-04T14:29:48;21.13;;;7.18;;
48847;SDS011;36611;51.638;5.784;2023-02-04T14:32:15;17.98;;;6.20;;
48847;SDS011;36611;51.638;5.784;2023-02-04T14:34:41;19.08;;;6.95;;
48847;SDS011;36611;51.638;5.784;2023-02-04T14:37:11;23.27;;;6.88;;
48847;SDS011;36611;51.638;5.784;2023-02-04T14:39:39;19.10;;;5.88;;
48847;SDS011;36611;51.638;5.784;2023-02-04T14:42:06;23.00;;;6.20;;
48847;SDS011;36611;51.638;5.784;2023-02-04T14:44:33;23.38;;;6.40;;
48847;SDS011;36611;51.638;5.784;2023-02-04T14:47:01;19.27;;;5.68;;
48847;SDS011;36611;51.638;5.784;2023-02-04T14:49:28;19.70;;;6.43;;
48847;SDS011;36611;51.638;5.784;2023-02-04T14:51:55;23.33;;;6.70;;
48847;SDS011;36611;51.638;5.784;2023-02-04T14:54:22;20.08;;;6.38;;
48847;SDS011;36611;51.638;5.784;2023-02-04T14:56:51;22.00;;;6.90;;
48847;SDS011;36611;51.638;5.784;2023-02-04T14:59:18;18.75;;;6.43;;
48847;SDS011;36611;51.638;5.784;2023-02-04T15:01:45;21.50;;;7.35;;
48847;SDS011;36611;51.638;5.784;2023-02-04T15:04:12;19.77;;;6.35;;
48847;SDS011;36611;51.638;5.784;2023-02-04T15:06:42;20.45;;;6.47;;
48847;SDS011;36611;51.638;5.784;2023-02-04T15:09:08;21.48;;;6.30;;
48847;SDS011;36611;51.638;5.784;2023-02-04T15:11:35;24.23;;;6.63;;
48847;SDS011;36611;51.638;5.784;2023-02-04T15:14:02;23.27;;;6.13;;
48847;SDS011;36611;51.638;5.784;2023-02-04T15:16:32;26.17;;;7.57;;
48847;SDS011;36611;51.638;5.784;2023-02-04T15:18:59;21.38;;;6.15;;
48847;SDS011;36611;51.638;5.784;2023-02-04T15:21:25;22.17;;;7.05;;
48847;SDS011;36611;51.638;5.784;2023-02-04T15:23:53;19.92;;;6.07;;
48847;SDS011;36611;51.638;5.784;2023-02-04T15:26:23;22.20;;;5.80;;
48847;SDS011;36611;51.638;5.784;2023-02-04T15:28:50;23.25;;;5.60;;
48847;SDS011;36611;51.638;5.784;2023-02-04T15:31:17;24.15;;;5.93;;
48847;SDS011;36611;51.638;5.784;2023-02-04T15:33:43;23.25;;;6.57;;
48847;SDS011;36611;51.638;5.784;2023-02-04T15:36:14;22.50;;;6.05;;
48847;SDS011;36611;51.638;5.784;2023-02-04T15:38:41;23.83;;;5.90;;
48847;SDS011;36611;51.638;5.784;2023-02-04T15:41:08;18.92;;;6.10;;
48847;SDS011;36611;51.638;5.784;2023-02-04T15:43:34;25.38;;;6.35;;
48847;SDS011;36611;51.638;5.784;2023-02-04T15:46:05;19.40;;;6.68;;
48847;SDS011;36611;51.638;5.784;2023-02-04T15:48:32;38.38;;;8.18;;
48847;SDS011;36611;51.638;5.784;2023-02-04T15:50:59;28.15;;;6.55;;
48847;SDS011;36611;51.638;5.784;2023-02-04T15:53:25;22.33;;;5.75;;
48847;SDS011;36611;51.638;5.784;2023-02-04T15:55:56;18.83;;;5.95;;
48847;SDS011;36611;51.638;5.784;2023-02-04T15:58:23;24.17;;;5.88;;
48847;SDS011;36611;51.638;5.784;2023-02-04T16:00:49;28.02;;;5.95;;
48847;SDS011;36611;51.638;5.784;2023-02-04T16:03:16;19.60;;;5.57;;
48847;SDS011;36611;51.638;5.784;2023-02-04T16:05:46;21.48;;;6.05;;
48847;SDS011;36611;51.638;5.784;2023-02-04T16:08:13;24.63;;;6.43;;
48847;SDS011;36611;51.638;5.784;2023-02-04T16:10:40;19.17;;;5.28;;
48847;SDS011;36611;51.638;5.784;2023-02-04T16:13:06;22.90;;;5.72;;
48847;SDS011;36611;51.638;5.784;2023-02-04T16:15:37;18.25;;;5.07;;
48847;SDS011;36611;51.638;5.784;2023-02-04T16:18:03;18.48;;;5.38;;
48847;SDS011;36611;51.638;5.784;2023-02-04T16:20:30;21.77;;;5.53;;
48847;SDS011;36611;51.638;5.784;2023-02-04T16:22:57;16.42;;;5.00;;
48847;SDS011;36611;51.638;5.784;2023-02-04T16:25:24;25.92;;;6.03;;
48847;SDS011;36611;51.638;5.784;2023-02-04T16:27:58;23.53;;;5.90;;
48847;SDS011;36611;51.638;5.784;2023-02-04T16:30:25;19.33;;;5.93;;
48847;SDS011;36611;51.638;5.784;2023-02-04T16:32:51;23.23;;;5.85;;
48847;SDS011;36611;51.638;5.784;2023-02-04T16:35:18;16.33;;;5.55;;
48847;SDS011;36611;51.638;5.784;2023-02-04T16:37:46;26.17;;;6.05;;
48847;SDS011;36611;51.638;5.784;2023-02-04T16:40:14;21.73;;;6.18;;